Timimoun, Algeria
Current Conditions -  °F | °C
As of 11:00 AM on Monday 24 Nov 2014 (Local Time) from DAUT Reporting Station
Scattered Clouds Scattered Clouds  
Wind Chill: 63°   Ceiling: Unl
Heat Index: 63°   Visibility: 4mi
Dew Point: 63°   Wind: 9mph
Humidity: 100%   Direction: 150°SSE
Pressure: 30"   Gusts: NA
Location:  29.26°N, 0.23°E
Report Text: DAUT 241000Z 15008KT 6000 SCT043 SCT046 17/17 Q1016
Loading
Personal Weather Stations






























Interactive Weather Map New forecast layout! Learn more

10-Day Weather Forecast

Advertisements
Track Severe Weather on mobile